Terminal Aerodrome Forecast
Issued by NWS

Home | Current Version | Previous Version | Text Only | Print | Product List | Glossary Off
Versions: 1 2 3 4 5 6 7 8 9 10 11 12 13 14 15 16 17 18 19 20 21 22 23 24 25 26 27 28 29

000
FTUS45 KGGW 100900 AAA
TAFOLF
TAF AMD
KOLF 100915Z 1009/1106 VRB06KT P6SM -TSRA BKN100CB
     FM101100 VRB05KT P6SM VCTS SCT100CB
     FM101500 VRB06KT P6SM BKN100
     FM101800 32012KT P6SM FEW110
     FM110300 VRB03KT P6SM SKC=

USA.gov is the U.S. government's official web portal to all federal, state and local government web resources and services.